Time;durP1;ratioP1;P1;durP2;ratioP2;P2;SDS_P1;SDS_P2;PMS_P1;PMS_P2;Temp;Humidity;BMP_temperature;BMP_pressure;BME280_temperature;BME280_humidity;BME280_pressure;Samples;Min_cycle;Max_cycle;Signal;HPM_P1;HPM_P2
2021/10/10 00:00:09;;;;;;;;;32.25;26.75;;;;;21.03;44.37;102109.41;5016474;28;45301;-56
2021/10/10 00:02:34;;;;;;;;;29.00;27.25;;;;;21.01;44.70;102117.34;5016074;28;45475;-56
2021/10/10 00:04:59;;;;;;;;;27.25;25.00;;;;;21.00;44.76;102112.97;5016485;28;45797;-56
2021/10/10 00:07:24;;;;;;;;;26.00;25.75;;;;;21.00;44.83;102107.72;5016489;28;45402;-56
2021/10/10 00:09:50;;;;;;;;;32.00;28.00;;;;;21.00;44.70;102115.63;4998963;28;45655;-56
2021/10/10 00:12:15;;;;;;;;;30.25;27.75;;;;;21.00;44.92;102110.34;5016503;28;46572;-56
2021/10/10 00:14:41;;;;;;;;;28.00;23.50;;;;;20.99;44.77;102108.66;5016214;28;45385;-56
2021/10/10 00:17:06;;;;;;;;;26.00;25.25;;;;;20.99;44.71;102113.94;5016309;28;45448;-56
2021/10/10 00:19:31;;;;;;;;;29.75;27.00;;;;;20.99;44.97;102111.28;5016380;28;45565;-56
2021/10/10 00:21:57;;;;;;;;;29.75;24.50;;;;;20.96;44.40;102108.75;5015993;28;45465;-56
2021/10/10 00:24:22;;;;;;;;;30.00;24.75;;;;;20.99;44.65;102113.94;5015934;28;45275;-55
2021/10/10 00:26:47;;;;;;;;;24.00;23.00;;;;;20.99;45.11;102113.06;5016531;28;45258;-55
2021/10/10 00:29:13;;;;;;;;;27.50;24.50;;;;;20.98;44.93;102106.06;5016284;28;45318;-56
2021/10/10 00:31:38;;;;;;;;;27.75;24.25;;;;;20.98;44.80;102112.22;4998060;28;47268;-54
2021/10/10 00:34:04;;;;;;;;;30.00;24.75;;;;;20.99;44.83;102111.28;5015954;28;45246;-56
2021/10/10 00:36:30;;;;;;;;;29.50;27.00;;;;;20.97;45.13;102110.47;5015915;28;45350;-56
2021/10/10 00:38:56;;;;;;;;;26.25;25.75;;;;;20.97;44.86;102113.13;4998446;28;45573;-56
2021/10/10 00:41:21;;;;;;;;;31.50;28.50;;;;;20.97;44.73;102110.47;4997926;28;46228;-56
2021/10/10 00:43:46;;;;;;;;;24.00;22.50;;;;;20.97;44.83;102110.47;5015991;28;45415;-55
2021/10/10 00:46:15;;;;;;;;;28.75;25.50;;;;;20.98;44.93;102114.84;5017113;28;45243;-56
2021/10/10 00:48:41;;;;;;;;;24.25;24.25;;;;;20.97;45.04;102113.13;5019585;28;45626;-55
2021/10/10 00:51:06;;;;;;;;;28.00;24.75;;;;;20.96;45.09;102111.41;5019050;28;46483;-56
2021/10/10 00:53:36;;;;;;;;;34.25;30.00;;;;;20.96;45.09;102111.41;5001454;28;45531;-56
2021/10/10 00:56:03;;;;;;;;;32.00;28.25;;;;;20.96;44.77;102107.88;5019383;28;45353;-55
2021/10/10 00:58:30;;;;;;;;;26.75;26.25;;;;;20.97;44.82;102113.13;5019381;28;45608;-60
2021/10/10 01:00:56;;;;;;;;;34.25;28.00;;;;;20.96;45.25;102106.13;5019169;28;45350;-55
2021/10/10 01:03:23;;;;;;;;;25.75;25.75;;;;;20.96;45.13;102107.88;5019110;28;45224;-54
2021/10/10 01:05:48;;;;;;;;;27.50;25.75;;;;;20.94;45.09;102100.03;5019408;28;45448;-55
2021/10/10 01:08:15;;;;;;;;;30.00;24.75;;;;;20.94;44.76;102105.31;5019315;28;45483;-58
2021/10/10 01:10:43;;;;;;;;;30.50;27.50;;;;;20.94;45.02;102107.09;5001177;28;46408;-56
2021/10/10 01:13:08;;;;;;;;;27.50;24.00;;;;;20.94;44.72;102104.47;5019014;28;45858;-55
2021/10/10 01:15:34;;;;;;;;;30.75;28.75;;;;;20.94;44.88;102107.09;5001117;28;45504;-54
2021/10/10 01:17:59;;;;;;;;;29.75;26.00;;;;;20.94;45.03;102104.47;5019084;28;45492;-56
2021/10/10 01:20:27;;;;;;;;;34.00;29.00;;;;;20.93;45.08;102108.03;5018586;28;45452;-55
2021/10/10 01:22:52;;;;;;;;;26.00;25.00;;;;;20.92;45.18;102104.50;5019022;28;45436;-55
2021/10/10 01:25:18;;;;;;;;;23.00;19.50;;;;;20.91;45.30;102110.69;5019300;28;45352;-54
2021/10/10 01:27:43;;;;;;;;;28.75;25.25;;;;;20.90;44.77;102106.34;5018948;28;45575;-55
2021/10/10 01:30:09;;;;;;;;;33.50;29.50;;;;;20.91;45.06;102109.84;5018591;28;45374;-55
2021/10/10 01:32:35;;;;;;;;;29.00;26.75;;;;;20.87;45.18;102093.28;5018598;28;45398;-56
2021/10/10 01:35:00;;;;;;;;;22.50;18.75;;;;;20.88;44.97;102097.66;5018644;28;45663;-56
2021/10/10 01:37:25;;;;;;;;;27.50;23.75;;;;;20.89;45.08;102106.41;5018937;28;45614;-55
2021/10/10 01:39:51;;;;;;;;;31.75;29.75;;;;;20.87;44.85;102098.56;5018802;28;46660;-54
2021/10/10 01:42:16;;;;;;;;;28.75;25.00;;;;;20.88;44.98;102100.28;5018383;28;45425;-56
2021/10/10 01:44:42;;;;;;;;;28.00;24.25;;;;;20.86;45.10;102102.09;5018472;28;45415;-55
2021/10/10 01:47:07;;;;;;;;;27.00;23.25;;;;;20.85;44.81;102093.31;5018572;28;45449;-54
2021/10/10 01:49:37;;;;;;;;;27.25;24.75;;;;;20.87;45.35;102095.06;5018258;28;45453;-56
2021/10/10 01:52:03;;;;;;;;;31.75;26.75;;;;;20.87;45.16;102087.16;5018197;28;45186;-55
2021/10/10 01:54:28;;;;;;;;;27.25;22.75;;;;;20.85;45.10;102080.16;5018328;28;45367;-54
2021/10/10 01:56:54;;;;;;;;;25.50;24.50;;;;;20.85;44.85;102087.22;5018502;28;45187;-54
2021/10/10 01:59:19;;;;;;;;;28.00;23.50;;;;;20.86;44.81;102083.66;5018104;28;45367;-54
2021/10/10 02:01:44;;;;;;;;;28.50;24.50;;;;;20.85;45.08;102085.44;5018251;28;45267;-54
2021/10/10 02:04:09;;;;;;;;;29.75;27.50;;;;;20.86;45.01;102083.66;5017891;28;45254;-55
2021/10/10 02:06:35;;;;;;;;;31.00;29.00;;;;;20.84;44.75;102077.59;5018355;28;45259;-55
2021/10/10 02:09:00;;;;;;;;;25.75;24.00;;;;;20.80;44.77;102074.22;5018031;28;46429;-56
2021/10/10 02:11:25;;;;;;;;;29.00;27.75;;;;;20.83;44.95;102081.13;5018019;28;45457;-56
2021/10/10 02:13:51;;;;;;;;;27.00;25.50;;;;;20.82;45.21;102076.78;5018373;28;45501;-56
2021/10/10 02:16:16;;;;;;;;;26.50;25.75;;;;;20.81;45.25;102077.69;5018322;28;45333;-55
2021/10/10 02:18:41;;;;;;;;;27.00;25.50;;;;;20.82;45.30;102076.78;5017688;28;46182;-55
2021/10/10 02:21:07;;;;;;;;;28.00;25.00;;;;;20.81;45.36;102075.94;5017779;28;46799;-56
2021/10/10 02:23:32;;;;;;;;;30.50;29.50;;;;;20.82;44.75;102087.31;5017869;28;45447;-55
2021/10/10 02:25:57;;;;;;;;;29.00;27.75;;;;;20.81;45.14;102075.94;5018186;28;45384;-56
2021/10/10 02:28:23;;;;;;;;;25.00;25.00;;;;;20.80;45.42;102073.34;5018049;28;45458;-56
2021/10/10 02:30:49;;;;;;;;;28.25;25.75;;;;;20.80;44.82;102081.25;5017705;28;45408;-56
2021/10/10 02:33:17;;;;;;;;;27.25;25.75;;;;;20.79;44.85;102080.41;4999859;28;45500;-56
2021/10/10 02:35:43;;;;;;;;;29.75;27.75;;;;;20.80;45.08;102084.75;5017933;28;45187;-56
2021/10/10 02:38:09;;;;;;;;;30.00;26.25;;;;;20.79;45.39;102084.78;5017503;28;45511;-54
2021/10/10 02:40:35;;;;;;;;;28.50;26.00;;;;;20.80;44.91;102086.50;5017669;28;45749;-55
2021/10/10 02:43:00;;;;;;;;;25.75;24.25;;;;;20.77;45.11;102086.66;5017687;28;45256;-56
2021/10/10 02:45:26;;;;;;;;;27.50;24.75;;;;;20.77;44.99;102081.38;5018184;28;45462;-56
2021/10/10 02:47:51;;;;;;;;;32.75;27.75;;;;;20.77;45.13;102081.38;5017325;28;46197;-53
2021/10/10 02:50:16;;;;;;;;;29.25;26.25;;;;;20.77;44.87;102094.53;5017362;28;45425;-54
2021/10/10 02:52:41;;;;;;;;;31.00;27.75;;;;;20.77;44.84;102092.75;5017488;28;45408;-55
2021/10/10 02:55:07;;;;;;;;;31.50;27.75;;;;;20.78;45.07;102085.72;5017587;28;45446;-55
2021/10/10 02:57:33;;;;;;;;;28.75;25.50;;;;;20.76;45.27;102085.75;5017249;28;46382;-54
2021/10/10 02:59:58;;;;;;;;;31.00;25.50;;;;;20.75;45.27;102084.03;5017339;28;45432;-55
2021/10/10 03:02:23;;;;;;;;;22.50;21.25;;;;;20.77;45.54;102089.28;5017392;28;45407;-55
2021/10/10 03:04:49;;;;;;;;;26.75;24.75;;;;;20.74;45.22;102082.31;5015942;28;45573;-54
2021/10/10 03:07:14;;;;;;;;;30.25;26.25;;;;;20.75;45.33;102077.94;5017040;28;46202;-54
2021/10/10 03:09:39;;;;;;;;;32.25;28.50;;;;;20.74;45.07;102081.44;5016328;28;45472;-54
2021/10/10 03:12:05;;;;;;;;;28.75;24.00;;;;;20.74;44.87;102087.59;5017209;28;45367;-54
2021/10/10 03:14:30;;;;;;;;;23.25;21.00;;;;;20.73;44.95;102085.84;5017318;28;45678;-56
2021/10/10 03:16:55;;;;;;;;;25.25;23.25;;;;;20.73;44.87;102080.56;5017181;28;46552;-55
2021/10/10 03:19:21;;;;;;;;;22.00;21.25;;;;;20.74;45.07;102084.97;5016929;28;45271;-55
2021/10/10 03:21:47;;;;;;;;;26.75;23.75;;;;;20.73;44.81;102079.72;5017097;28;45433;-55
2021/10/10 03:24:12;;;;;;;;;25.25;24.25;;;;;20.72;45.06;102081.50;5017090;28;45370;-56
2021/10/10 03:26:37;;;;;;;;;25.75;23.00;;;;;20.72;44.90;102076.25;4998937;28;47191;-55
2021/10/10 03:29:03;;;;;;;;;27.00;25.50;;;;;20.72;44.83;102080.63;5016788;28;45335;-56
2021/10/10 03:31:29;;;;;;;;;30.75;25.25;;;;;20.70;45.08;102081.53;5017182;28;45320;-56
2021/10/10 03:33:54;;;;;;;;;26.75;26.25;;;;;20.70;44.97;102078.06;5017295;28;45635;-55
2021/10/10 03:36:20;;;;;;;;;25.25;23.00;;;;;20.70;45.20;102081.53;5016625;28;45991;-54
2021/10/10 03:38:45;;;;;;;;;28.75;26.25;;;;;20.72;45.01;102085.91;5016779;28;45237;-56
2021/10/10 03:41:12;;;;;;;;;32.25;26.25;;;;;20.72;44.76;102085.91;5016759;28;45253;-56
2021/10/10 03:43:38;;;;;;;;;30.75;24.00;;;;;20.73;45.03;102085.84;5016643;28;45384;-55
2021/10/10 03:46:03;;;;;;;;;31.50;27.00;;;;;20.74;45.05;102081.44;5016494;28;45423;-55
2021/10/10 03:48:29;;;;;;;;;28.25;22.75;;;;;20.74;44.94;102082.31;5016802;28;45348;-55
2021/10/10 03:50:54;;;;;;;;;25.50;22.25;;;;;20.73;44.81;102077.09;5016617;28;45419;-54
2021/10/10 03:53:22;;;;;;;;;27.50;22.50;;;;;20.72;45.00;102073.59;4999004;28;45534;-56
2021/10/10 03:55:51;;;;;;;;;23.25;22.50;;;;;20.72;44.91;102080.63;5016252;28;46950;-56
2021/10/10 03:58:16;;;;;;;;;30.00;25.75;;;;;20.71;45.20;102077.16;5016385;28;45434;-53
2021/10/10 04:00:42;;;;;;;;;22.25;22.25;;;;;20.68;45.10;102078.09;5016552;28;45272;-56
2021/10/10 04:03:09;;;;;;;;;28.25;27.50;;;;;20.70;44.61;102089.44;5016332;28;45332;-55
2021/10/10 04:08:00;;;;;;;;;25.75;23.00;;;;;20.69;45.13;102081.63;5016472;28;45440;-54
2021/10/10 04:10:27;;;;;;;;;26.50;22.75;;;;;20.70;45.14;102086.81;5016884;28;45863;-52
2021/10/10 04:12:52;;;;;;;;;29.75;25.00;;;;;20.69;44.54;102081.63;5016565;28;45281;-54
2021/10/10 04:15:18;;;;;;;;;25.50;24.50;;;;;20.69;44.48;102077.19;5016109;28;45369;-54
2021/10/10 04:17:44;;;;;;;;;26.75;26.00;;;;;20.68;44.65;102088.63;5016167;28;45327;-56
2021/10/10 04:20:12;;;;;;;;;26.75;24.00;;;;;20.69;45.09;102087.72;5017489;28;45310;-54
2021/10/10 04:22:38;;;;;;;;;25.50;24.50;;;;;20.68;44.36;102088.63;5020033;28;45507;-56
2021/10/10 04:25:04;;;;;;;;;22.00;20.75;;;;;20.67;44.62;102080.81;5019507;28;45510;-56
2021/10/10 04:27:32;;;;;;;;;27.25;23.50;;;;;20.68;44.37;102079.91;5019748;28;46013;-52
2021/10/10 04:29:57;;;;;;;;;27.25;24.00;;;;;20.68;44.79;102087.78;5019881;28;45516;-56
2021/10/10 04:32:23;;;;;;;;;23.75;22.50;;;;;20.67;44.73;102092.19;5019841;28;45488;-54
2021/10/10 04:34:48;;;;;;;;;28.75;25.75;;;;;20.66;44.58;102090.50;5019471;28;46343;-56
2021/10/10 04:37:13;;;;;;;;;24.50;22.25;;;;;20.66;44.72;102085.22;5019536;28;45251;-56
2021/10/10 04:39:39;;;;;;;;;31.75;24.00;;;;;20.67;44.89;102086.91;5019676;28;45275;-55
2021/10/10 04:42:05;;;;;;;;;29.00;23.00;;;;;20.67;44.96;102094.81;5019691;28;45570;-55
2021/10/10 04:44:31;;;;;;;;;26.00;22.75;;;;;20.66;44.63;102093.13;5019555;28;46417;-58
2021/10/10 04:46:57;;;;;;;;;32.50;24.00;;;;;20.68;44.99;102093.06;5019272;28;45424;-55
2021/10/10 04:49:22;;;;;;;;;24.25;22.25;;;;;20.67;45.04;102086.91;5019464;28;45440;-55
2021/10/10 04:51:47;;;;;;;;;26.25;24.00;;;;;20.67;44.62;102086.91;5019540;28;45400;-55
2021/10/10 04:54:13;;;;;;;;;33.50;24.50;;;;;20.67;44.92;102097.44;5019166;28;45349;-56
2021/10/10 04:56:40;;;;;;;;;42.50;37.25;;;;;20.67;44.53;102101.88;5019135;28;45337;-56
2021/10/10 04:59:05;;;;;;;;;51.75;43.00;;;;;20.66;45.04;102101.03;5019120;28;45325;-56
2021/10/10 05:01:30;;;;;;;;;43.50;37.50;;;;;20.67;45.27;102102.72;5019725;28;45470;-53
2021/10/10 05:03:56;;;;;;;;;44.75;38.50;;;;;20.67;45.27;102097.44;5018899;28;46443;-55
2021/10/10 05:06:21;;;;;;;;;47.00;37.33;;;;;20.68;45.03;102104.44;5001028;28;47270;-56
2021/10/10 05:08:47;;;;;;;;;44.50;35.75;;;;;20.68;44.83;102099.19;5019168;28;45270;-55
2021/10/10 05:11:12;;;;;;;;;40.00;33.25;;;;;20.70;45.03;102102.63;5019285;28;45226;-55
2021/10/10 05:13:37;;;;;;;;;39.67;35.33;;;;;20.70;44.97;102105.25;5018916;28;45392;-57
2021/10/10 05:16:04;;;;;;;;;34.50;33.25;;;;;20.68;44.76;102095.69;5019380;28;45358;-56
2021/10/10 05:18:29;;;;;;;;;38.25;33.75;;;;;20.67;44.75;102100.09;5018962;28;45217;-56
2021/10/10 05:20:55;;;;;;;;;38.50;33.75;;;;;20.67;44.43;102091.34;5019363;28;46004;-57
2021/10/10 05:23:20;;;;;;;;;41.00;35.50;;;;;20.64;44.57;102089.69;5018869;28;45334;-55
2021/10/10 05:25:46;;;;;;;;;39.50;33.75;;;;;20.62;44.80;102094.16;5018704;28;45278;-56
2021/10/10 05:28:11;;;;;;;;;39.50;33.50;;;;;20.62;44.67;102104.69;5018820;28;45373;-53
2021/10/10 05:30:37;;;;;;;;;35.75;31.50;;;;;20.62;45.06;102103.81;5018928;28;45413;-56
2021/10/10 05:33:02;;;;;;;;;42.25;35.25;;;;;20.61;44.52;102107.38;5018193;28;46279;-55
2021/10/10 05:35:27;;;;;;;;;35.00;32.00;;;;;20.59;44.51;102104.78;5018725;28;45352;-56
2021/10/10 05:37:53;;;;;;;;;42.67;34.00;;;;;20.57;44.90;102101.34;5018623;28;45401;-56
2021/10/10 05:40:18;;;;;;;;;40.25;32.25;;;;;20.57;44.83;102109.25;5018841;28;45511;-54
2021/10/10 05:42:43;;;;;;;;;35.25;31.25;;;;;20.58;44.57;102110.97;5018317;28;46557;-55
2021/10/10 05:45:10;;;;;;;;;38.00;31.25;;;;;20.55;44.49;102105.81;5018352;28;45354;-55
2021/10/10 05:47:35;;;;;;;;;36.75;33.00;;;;;20.53;44.87;102103.22;5018834;28;45364;-54
2021/10/10 05:50:00;;;;;;;;;36.00;31.50;;;;;20.54;44.32;102112.84;5018575;28;45427;-53
2021/10/10 05:52:27;;;;;;;;;33.00;31.25;;;;;20.53;44.78;102113.75;5018034;28;45481;-54
2021/10/10 05:54:53;;;;;;;;;30.75;30.75;;;;;20.53;44.55;102105.00;5018283;28;45768;-54
2021/10/10 05:57:23;;;;;;;;;36.00;31.25;;;;;20.52;44.91;102114.66;5018267;28;45269;-55
2021/10/10 05:59:51;;;;;;;;;35.75;30.25;;;;;20.53;44.84;102115.53;5018474;28;45456;-53
2021/10/10 06:02:16;;;;;;;;;33.50;31.00;;;;;20.51;44.29;102117.38;5018141;28;47127;-54
2021/10/10 06:04:42;;;;;;;;;32.33;29.00;;;;;20.51;44.74;102122.63;5017763;28;49583;-54
2021/10/10 06:07:07;;;;;;;;;33.75;28.25;;;;;20.48;44.67;102118.34;5018497;28;45304;-55
2021/10/10 06:09:32;;;;;;;;;30.75;28.75;;;;;20.48;44.16;102113.06;5018657;28;45178;-52
2021/10/10 06:11:59;;;;;;;;;32.00;28.67;;;;;20.49;44.30;102129.72;5000066;28;47009;-55
2021/10/10 06:14:24;;;;;;;;;33.00;32.00;;;;;20.47;44.58;102123.63;5018003;28;45846;-55
2021/10/10 06:16:49;;;;;;;;;29.00;29.00;;;;;20.48;43.96;102130.63;5000216;28;45498;-54
2021/10/10 06:19:15;;;;;;;;;32.75;30.75;;;;;20.48;44.40;102128.88;5018217;28;45479;-56
2021/10/10 06:21:40;;;;;;;;;32.50;28.00;;;;;20.48;44.28;102130.63;5017887;28;45594;-55
2021/10/10 06:24:06;;;;;;;;;39.50;31.50;;;;;20.45;44.46;102122.88;5000369;28;45847;-51
2021/10/10 06:26:31;;;;;;;;;31.25;30.25;;;;;20.46;44.54;102129.81;5017886;28;45345;-55
2021/10/10 06:28:56;;;;;;;;;34.25;30.25;;;;;20.46;44.21;102127.19;5017978;28;45379;-56
2021/10/10 06:31:22;;;;;;;;;30.75;28.50;;;;;20.44;44.22;102127.25;5017725;28;45599;-56
2021/10/10 06:33:47;;;;;;;;;30.50;29.25;;;;;20.45;44.50;102133.41;5000044;28;45391;-55
2021/10/10 06:36:19;;;;;;;;;31.50;28.50;;;;;20.43;44.53;102136.06;5017748;28;45353;-55
2021/10/10 06:38:44;;;;;;;;;33.25;28.75;;;;;20.45;44.62;102130.75;5018042;28;45203;-55
2021/10/10 06:41:10;;;;;;;;;29.00;28.75;;;;;20.46;44.10;102137.72;5017455;28;46541;-54
2021/10/10 06:43:35;;;;;;;;;28.75;26.25;;;;;20.44;44.51;102139.56;5016659;28;47016;-54
2021/10/10 06:46:00;;;;;;;;;28.75;27.00;;;;;20.45;44.33;102141.28;5017725;28;45273;-55
2021/10/10 06:48:26;;;;;;;;;28.25;27.25;;;;;20.45;44.39;102151.84;5017753;28;45223;-54
2021/10/10 06:50:51;;;;;;;;;34.00;28.50;;;;;20.45;44.57;102149.19;5017358;28;45379;-56
2021/10/10 06:53:16;;;;;;;;;27.75;25.25;;;;;20.45;44.15;102138.66;5017487;28;45371;-55
2021/10/10 06:55:42;;;;;;;;;31.25;26.00;;;;;20.46;44.43;102145.63;5017444;28;45318;-55
2021/10/10 06:58:07;;;;;;;;;26.25;21.25;;;;;20.46;44.31;102156.16;5017932;28;45635;-55
2021/10/10 07:00:33;;;;;;;;;33.75;28.75;;;;;20.47;44.15;102152.63;5017210;28;45404;-55
2021/10/10 07:02:58;;;;;;;;;29.50;29.25;;;;;20.48;44.40;102149.06;5017086;28;45957;-54
2021/10/10 07:05:24;;;;;;;;;23.00;22.50;;;;;20.48;44.27;102156.97;4999243;28;45575;-55
2021/10/10 07:07:49;;;;;;;;;28.50;28.25;;;;;20.48;44.07;102149.94;5017370;28;45463;-56
2021/10/10 07:10:14;;;;;;;;;32.00;27.75;;;;;20.50;44.26;102157.78;4999166;28;47216;-55
2021/10/10 07:12:40;;;;;;;;;31.75;28.50;;;;;20.49;44.30;102150.78;5017349;28;45785;-50
2021/10/10 07:15:07;;;;;;;;;25.50;25.50;;;;;20.49;44.09;102146.41;5017530;28;45443;-49
2021/10/10 07:17:33;;;;;;;;;27.25;23.00;;;;;20.50;44.04;102152.50;5017347;28;45238;-58
2021/10/10 07:20:03;;;;;;;;;25.75;25.75;;;;;20.50;44.00;102156.03;5016738;28;47408;-55
2021/10/10 07:22:43;;;;;;;;;27.75;24.25;;;;;20.51;44.24;102159.50;5016837;28;45321;-56
2021/10/10 07:25:09;;;;;;;;;34.00;27.75;;;;;20.52;43.94;102154.19;5001601;28;45339;-54
2021/10/10 07:27:35;;;;;;;;;28.50;25.50;;;;;20.54;44.45;102156.78;5013408;28;45336;-55
2021/10/10 07:30:03;;;;;;;;;30.50;27.75;;;;;20.57;44.36;102168.97;5015595;28;46155;-56
2021/10/10 07:32:32;;;;;;;;;22.75;21.25;;;;;20.57;44.27;102164.56;5015357;28;45408;-56
2021/10/10 07:34:58;;;;;;;;;22.75;20.75;;;;;20.58;44.11;102170.69;5016625;28;45268;-56
2021/10/10 07:37:24;;;;;;;;;30.00;27.50;;;;;20.57;43.95;102164.56;5016311;28;45226;-56
2021/10/10 07:39:50;;;;;;;;;29.00;25.50;;;;;20.58;43.74;102166.28;5016501;28;46655;-56
2021/10/10 07:42:16;;;;;;;;;26.00;24.50;;;;;20.58;43.69;102165.44;5015926;28;45369;-56
2021/10/10 07:44:46;;;;;;;;;29.00;25.25;;;;;20.58;43.56;102166.28;5016606;28;45412;-56
2021/10/10 07:49:44;;;;;;;;;29.00;24.75;;;;;20.58;43.48;102158.38;5016163;28;45443;-56
2021/10/10 07:52:11;;;;;;;;;30.50;26.75;;;;;20.58;43.97;102155.75;5016338;28;45821;-56
2021/10/10 07:54:38;;;;;;;;;26.75;22.25;;;;;20.60;43.52;102169.72;5016389;28;45478;-56
2021/10/10 07:57:04;;;;;;;;;25.25;25.25;;;;;20.60;43.55;102171.50;5016643;28;45291;-56
2021/10/10 07:59:29;;;;;;;;;27.50;24.25;;;;;20.60;43.81;102175.00;5015775;28;46077;-56
2021/10/10 08:01:54;;;;;;;;;25.75;24.75;;;;;20.59;43.50;102178.53;5015958;28;45172;-53
2021/10/10 08:04:20;;;;;;;;;27.00;24.50;;;;;20.60;43.62;102177.63;5016136;28;45279;-56
2021/10/10 08:06:49;;;;;;;;;29.25;26.00;;;;;20.59;43.54;102173.25;5016326;28;45678;-56
2021/10/10 08:09:15;;;;;;;;;25.50;23.00;;;;;20.61;43.59;102187.25;5015726;28;45402;-56
2021/10/10 08:11:42;;;;;;;;;25.75;25.75;;;;;20.62;43.71;102182.81;5016211;28;45452;-56
2021/10/10 08:14:08;;;;;;;;;21.25;20.25;;;;;20.60;43.02;102182.91;5016550;28;45333;-56
2021/10/10 08:16:33;;;;;;;;;27.50;23.00;;;;;20.60;43.59;102184.69;5016083;28;45191;-54
2021/10/10 08:18:58;;;;;;;;;29.75;26.25;;;;;20.60;43.40;102175.00;5014913;28;46518;-56
2021/10/10 08:21:24;;;;;;;;;27.50;26.50;;;;;20.62;43.19;102183.72;5015943;28;45300;-56
2021/10/10 08:23:49;;;;;;;;;26.25;24.00;;;;;20.58;43.68;102187.34;5016015;28;45282;-56
2021/10/10 08:26:14;;;;;;;;;26.75;25.50;;;;;20.62;43.35;102194.25;5015858;28;45205;-55
2021/10/10 08:28:40;;;;;;;;;25.50;25.50;;;;;20.61;42.98;102204.84;5015082;28;46762;-56
2021/10/10 08:31:05;;;;;;;;;24.50;24.50;;;;;20.63;43.00;102195.97;5016095;28;45246;-55
2021/10/10 08:33:30;;;;;;;;;30.25;23.00;;;;;20.64;43.29;102200.31;5016087;28;45366;-55
2021/10/10 08:35:56;;;;;;;;;32.25;28.50;;;;;20.64;42.93;102202.97;5016352;28;45272;-56
2021/10/10 08:38:21;;;;;;;;;25.50;25.50;;;;;20.65;43.27;102195.91;5015962;28;45440;-53
2021/10/10 08:40:48;;;;;;;;;34.25;23.75;;;;;20.65;42.90;102196.78;5015726;28;45430;-53
2021/10/10 08:43:19;;;;;;;;;30.00;24.50;;;;;20.66;43.19;102187.09;5015847;28;45437;-54
2021/10/10 08:45:46;;;;;;;;;34.75;24.75;;;;;20.66;43.17;102182.69;5016049;28;45341;-51
2021/10/10 08:48:11;;;;;;;;;26.25;24.25;;;;;20.65;43.17;102169.56;5015982;28;45752;-54
2021/10/10 08:50:37;;;;;;;;;29.25;25.50;;;;;20.67;43.02;102165.09;5016102;28;45506;-53
2021/10/10 08:53:03;;;;;;;;;30.50;27.75;;;;;20.66;42.84;102168.66;5015904;28;45376;-53
2021/10/10 08:55:31;;;;;;;;;30.50;25.75;;;;;20.68;42.64;102169.47;5031385;28;45292;-53
2021/10/10 08:57:57;;;;;;;;;30.00;28.50;;;;;20.67;42.58;102176.50;5014684;28;45492;-54
2021/10/10 09:00:34;;;;;;;;;33.25;28.00;;;;;20.68;43.24;102186.13;5013225;28;45749;-55
2021/10/10 09:03:01;;;;;;;;;35.75;27.25;;;;;20.69;42.83;102201.00;5015228;28;45317;-54
2021/10/10 09:05:27;;;;;;;;;27.75;26.50;;;;;20.68;42.84;102212.47;5015847;28;45332;-50
2021/10/10 09:07:57;;;;;;;;;27.25;24.75;;;;;20.69;43.01;102205.44;5017561;28;46088;-54
2021/10/10 09:10:31;;;;;;;;;30.00;26.00;;;;;20.70;42.76;102209.78;5018380;28;46015;-54
2021/10/10 09:13:30;;;;;;;;;30.00;27.00;;;;;20.70;43.29;102208.00;5018717;28;45318;-53
2021/10/10 09:15:56;;;;;;;;;28.25;27.50;;;;;20.70;43.14;102204.53;5019104;28;45180;-53
2021/10/10 09:18:31;;;;;;;;;27.25;24.75;;;;;20.71;42.69;102203.63;5018705;28;45410;-55
2021/10/10 09:21:10;;;;;;;;;27.25;25.50;;;;;20.70;42.95;102204.53;5018935;28;45353;-53
2021/10/10 09:23:36;;;;;;;;;26.50;24.75;;;;;20.70;43.27;102208.00;5018769;28;45329;-53
2021/10/10 09:26:03;;;;;;;;;27.50;23.75;;;;;20.73;42.80;102212.31;5018943;28;45342;-54
2021/10/10 09:28:31;;;;;;;;;24.75;22.25;;;;;20.73;42.98;102216.72;5018591;28;46329;-50
2021/10/10 09:31:05;;;;;;;;;27.75;26.75;;;;;20.73;42.76;102225.47;5018699;28;45885;-53
2021/10/10 09:33:45;;;;;;;;;28.75;26.50;;;;;20.72;43.22;102221.16;5000866;28;45404;-52
2021/10/10 09:36:20;;;;;;;;;25.25;21.50;;;;;20.74;42.59;102215.81;5019117;28;45310;-53
2021/10/10 09:44:07;;;;;;;;;30.75;27.00;;;;;20.73;42.59;102217.56;5018626;28;45306;-53
2021/10/10 09:46:33;;;;;;;;;20.75;18.50;;;;;20.73;42.75;102222.84;5018598;28;45223;-52
2021/10/10 09:48:58;;;;;;;;;29.50;28.00;;;;;20.73;42.62;102211.44;5018274;28;45278;-53
2021/10/10 09:51:34;;;;;;;;;29.50;26.75;;;;;20.73;42.60;102214.94;5018308;28;45179;-52
2021/10/10 09:54:04;;;;;;;;;24.75;21.75;;;;;20.73;42.40;102216.72;5018457;28;45778;-53
2021/10/10 09:56:30;;;;;;;;;28.50;24.75;;;;;20.73;42.39;102217.56;5018696;28;45615;-52
2021/10/10 09:58:55;;;;;;;;;22.75;21.00;;;;;20.74;43.01;102213.19;5018101;28;46626;-54
2021/10/10 10:01:24;;;;;;;;;28.00;26.50;;;;;20.75;42.85;102212.31;5000162;28;45503;-55
2021/10/10 10:04:02;;;;;;;;;27.00;22.50;;;;;20.76;42.67;102216.66;5018213;28;45255;-54
2021/10/10 10:06:30;;;;;;;;;28.25;27.75;;;;;20.76;42.29;102216.66;5018260;28;45404;-51
2021/10/10 10:09:01;;;;;;;;;34.00;24.50;;;;;20.74;42.53;102211.41;5016983;28;46499;-54
2021/10/10 10:11:33;;;;;;;;;24.25;23.50;;;;;20.78;42.66;102220.09;5017930;28;45411;-54
2021/10/10 10:14:04;;;;;;;;;27.00;24.00;;;;;20.77;42.65;102219.22;5018211;28;45235;-54
2021/10/10 10:16:31;;;;;;;;;27.25;24.00;;;;;20.78;42.77;102220.94;5018272;28;45574;-54
2021/10/10 10:18:59;;;;;;;;;24.25;22.00;;;;;20.79;42.98;102211.25;5017606;28;45418;-54
2021/10/10 10:21:27;;;;;;;;;24.50;24.50;;;;;20.79;42.17;102212.13;5017852;28;45284;-54
2021/10/10 10:23:58;;;;;;;;;23.25;22.75;;;;;20.80;42.38;102215.63;5017928;28;45409;-54
2021/10/10 10:26:27;;;;;;;;;23.25;23.00;;;;;20.81;42.41;102225.25;5018046;28;45342;-53
2021/10/10 10:28:53;;;;;;;;;28.25;23.25;;;;;20.81;42.43;102215.59;5017572;28;46262;-52
2021/10/10 10:31:20;;;;;;;;;23.75;21.00;;;;;20.80;42.74;102219.13;5017659;28;45417;-54
2021/10/10 10:33:45;;;;;;;;;24.75;21.00;;;;;20.81;42.98;102222.63;5018246;28;45294;-50
2021/10/10 10:36:11;;;;;;;;;24.50;24.50;;;;;20.83;42.50;102228.69;5017931;28;45583;-51
2021/10/10 10:38:42;;;;;;;;;30.75;23.75;;;;;20.85;43.07;102226.88;5017394;28;46446;-52
2021/10/10 10:41:07;;;;;;;;;25.50;23.50;;;;;20.83;42.93;102223.44;5017843;28;45994;-51
2021/10/10 10:43:34;;;;;;;;;27.75;23.75;;;;;20.81;42.76;102223.50;5017578;28;45756;-53
2021/10/10 10:46:07;;;;;;;;;24.25;22.25;;;;;20.82;43.00;102222.59;5017677;28;45472;-50
2021/10/10 10:48:36;;;;;;;;;19.50;18.50;;;;;20.81;42.79;102226.13;5017265;28;45658;-53
2021/10/10 10:51:52;;;;;;;;;24.75;24.50;;;;;20.83;43.47;102233.97;5017294;28;45794;-50
2021/10/10 10:54:37;;;;;;;;;24.25;23.50;;;;;20.85;43.32;102234.78;5014343;28;45222;-52
2021/10/10 10:57:43;;;;;;;;;22.50;20.50;;;;;20.84;42.95;102231.25;5017892;28;45432;-52
2021/10/10 11:00:12;;;;;;;;;24.00;23.00;;;;;20.84;42.86;102227.78;5017264;28;47520;-54
2021/10/10 11:03:07;;;;;;;;;24.75;20.00;;;;;20.86;42.92;102236.50;5017120;28;46022;-54
2021/10/10 11:05:35;;;;;;;;;24.00;22.00;;;;;20.86;43.28;102225.97;5017461;28;45969;-53
2021/10/10 11:08:26;;;;;;;;;21.50;19.75;;;;;20.85;43.05;102219.81;5017409;28;45345;-52
2021/10/10 11:11:04;;;;;;;;;24.75;22.75;;;;;20.88;43.16;102221.50;5016340;28;46397;-53
2021/10/10 11:13:34;;;;;;;;;24.25;20.00;;;;;20.87;43.20;102211.88;5017128;28;45950;-52
2021/10/10 11:16:16;;;;;;;;;20.75;18.50;;;;;20.89;43.07;102222.34;5017243;28;45214;-54
2021/10/10 11:18:47;;;;;;;;;24.25;23.75;;;;;20.88;43.47;102215.34;5017390;28;45199;-51